createdAt,value
2023-06-07T00:01:09.483Z,102111.00
2023-06-07T00:06:11.660Z,102117.56
2023-06-07T00:11:14.463Z,102110.47
2023-06-07T00:16:16.081Z,102109.59
2023-06-07T00:21:20.997Z,102114.13
2023-06-07T00:26:22.695Z,102113.22
2023-06-07T00:31:26.350Z,102119.28
2023-06-07T00:36:29.790Z,102108.19
2023-06-07T00:41:31.673Z,102103.72
2023-06-07T00:46:33.416Z,102102.34
2023-06-07T00:51:35.985Z,102095.38
2023-06-07T00:56:37.810Z,102093.81
2023-06-07T01:01:40.561Z,102088.44
2023-06-07T01:06:42.173Z,102094.19
2023-06-07T01:11:47.824Z,102097.09
2023-06-07T01:16:51.994Z,102100.53
2023-06-07T01:22:08.128Z,102099.00
2023-06-07T01:27:11.374Z,102102.59
2023-06-07T01:32:14.968Z,102107.41
2023-06-07T01:37:17.311Z,102105.63
2023-06-07T01:42:22.384Z,102105.38
2023-06-07T01:47:24.278Z,102110.91
2023-06-07T01:52:25.920Z,102106.75
2023-06-07T01:57:53.632Z,102110.53
2023-06-07T02:03:11.364Z,102100.13
2023-06-07T02:08:30.257Z,102106.34
2023-06-07T02:13:37.869Z,102104.09
2023-06-07T02:18:42.236Z,102099.84
2023-06-07T02:23:44.073Z,102105.13
2023-06-07T02:28:46.130Z,102096.25
2023-06-07T02:33:49.355Z,102094.41
2023-06-07T02:38:51.285Z,102098.97
2023-06-07T02:43:52.868Z,102085.69
2023-06-07T02:48:54.640Z,102092.03
2023-06-07T02:54:01.607Z,102093.44
2023-06-07T02:59:04.242Z,102093.16
2023-06-07T03:04:10.935Z,102081.56
2023-06-07T03:09:16.833Z,102091.03
2023-06-07T03:14:20.634Z,102095.22
2023-06-07T03:19:24.431Z,102091.75
2023-06-07T03:24:29.916Z,102092.06
2023-06-07T03:29:31.922Z,102078.16
2023-06-07T03:34:34.323Z,102075.69
2023-06-07T03:39:38.788Z,102085.25
2023-06-07T03:44:40.801Z,102091.09
2023-06-07T03:49:44.285Z,102091.81
2023-06-07T03:54:46.562Z,102085.63
2023-06-07T03:59:48.368Z,102084.25
2023-06-07T04:04:53.760Z,102088.41
2023-06-07T04:09:56.152Z,102084.25
2023-06-07T04:15:00.035Z,102086.69
2023-06-07T04:20:05.197Z,102077.03
2023-06-07T04:25:08.737Z,102070.13
2023-06-07T04:30:11.801Z,102080.16
2023-06-07T04:35:15.658Z,102083.56
2023-06-07T04:40:19.625Z,102087.59
2023-06-07T04:45:30.484Z,102090.53
2023-06-07T04:50:32.253Z,102089.69
2023-06-07T04:55:36.538Z,102084.75
2023-06-07T05:00:40.843Z,102091.88
2023-06-07T05:05:47.815Z,102085.44
2023-06-07T05:10:51.167Z,102080.63
2023-06-07T05:15:54.282Z,102089.50
2023-06-07T05:20:56.773Z,102099.72
2023-06-07T05:26:00.217Z,102097.28
2023-06-07T05:31:02.782Z,102096.44
2023-06-07T05:36:06.528Z,102102.34
2023-06-07T05:41:10.256Z,102103.03
2023-06-07T05:46:12.345Z,102096.13
2023-06-07T05:51:16.085Z,102108.22
2023-06-07T05:56:19.905Z,102108.50
2023-06-07T06:01:21.912Z,102109.97
2023-06-07T06:06:25.136Z,102104.06
2023-06-07T06:11:27.081Z,102105.09
2023-06-07T06:16:29.869Z,102106.13
2023-06-07T06:21:31.583Z,102106.13
2023-06-07T06:26:33.627Z,102105.59
2023-06-07T06:31:37.807Z,102113.41
2023-06-07T06:36:39.715Z,102114.59
2023-06-07T06:41:41.602Z,102122.78
2023-06-07T06:46:51.982Z,102115.69
2023-06-07T06:51:53.794Z,102121.56
2023-06-07T06:56:56.090Z,102128.97
2023-06-07T07:01:59.063Z,102133.66
2023-06-07T07:07:02.217Z,102128.50
2023-06-07T07:12:04.338Z,102123.47
2023-06-07T07:17:06.364Z,102121.94
2023-06-07T07:22:09.337Z,102125.81
2023-06-07T07:27:11.664Z,102122.81
2023-06-07T07:32:13.282Z,102120.38
2023-06-07T07:37:15.569Z,102130.47
2023-06-07T07:42:17.260Z,102133.66
2023-06-07T07:47:19.105Z,102125.22
2023-06-07T07:52:22.628Z,102121.38
2023-06-07T07:57:24.643Z,102124.72
2023-06-07T08:02:26.996Z,102132.41
2023-06-07T08:07:30.815Z,102130.25
2023-06-07T08:12:35.024Z,102139.44
2023-06-07T08:17:37.165Z,102126.75
2023-06-07T08:22:43.103Z,102128.47
2023-06-07T08:27:44.806Z,102126.38
2023-06-07T08:32:47.230Z,102132.03
2023-06-07T08:37:50.781Z,102130.81
2023-06-07T08:42:52.513Z,102126.75
2023-06-07T08:47:55.817Z,102120.03
2023-06-07T08:53:03.718Z,102124.78
2023-06-07T08:58:08.342Z,102114.06
2023-06-07T09:03:13.044Z,102122.00
2023-06-07T09:08:14.769Z,102115.41
2023-06-07T09:13:23.239Z,102113.72
2023-06-07T09:18:41.785Z,102125.03
2023-06-07T09:23:43.706Z,102119.88
2023-06-07T09:28:47.294Z,102109.63
2023-06-07T09:33:50.548Z,102126.06
2023-06-07T09:38:52.212Z,102116.28
2023-06-07T09:44:00.271Z,102101.72
2023-06-07T09:49:03.049Z,102102.56
2023-06-07T09:54:07.009Z,102115.13
2023-06-07T09:59:15.801Z,102111.53
2023-06-07T10:04:18.057Z,102110.09
2023-06-07T10:09:21.885Z,102106.44
2023-06-07T10:14:33.370Z,102103.41
2023-06-07T10:19:42.813Z,102095.31
2023-06-07T10:25:05.567Z,102100.09
2023-06-07T10:30:12.263Z,102103.81
2023-06-07T10:35:15.904Z,102098.59
2023-06-07T10:40:17.964Z,102092.75
2023-06-07T10:45:21.361Z,102087.16
2023-06-07T10:50:31.893Z,102083.56
2023-06-07T10:55:33.868Z,102084.38
2023-06-07T11:00:36.611Z,102074.03
2023-06-07T11:05:54.306Z,102078.91
2023-06-07T11:11:02.972Z,102079.22
2023-06-07T11:16:27.296Z,102063.25
2023-06-07T11:21:51.153Z,102076.41
2023-06-07T11:26:53.504Z,102066.09
2023-06-07T11:32:02.987Z,102053.75
2023-06-07T11:37:13.049Z,102057.41
2023-06-07T11:42:14.885Z,102063.22
2023-06-07T11:47:16.558Z,102058.50
2023-06-07T11:52:20.216Z,102057.00
2023-06-07T11:57:23.690Z,102052.91
2023-06-07T12:02:26.982Z,102041.16
2023-06-07T12:07:32.653Z,102036.91
2023-06-07T12:12:34.985Z,102042.44
2023-06-07T12:17:37.193Z,102047.53
2023-06-07T12:22:40.109Z,102043.94
2023-06-07T12:27:46.781Z,102040.03
2023-06-07T12:32:51.775Z,102036.91
2023-06-07T12:37:56.254Z,102030.44
2023-06-07T12:42:58.335Z,102040.47
2023-06-07T12:48:00.097Z,102028.16
2023-06-07T12:53:02.664Z,102024.97
2023-06-07T12:58:04.328Z,102024.28
2023-06-07T13:03:06.332Z,102024.59
2023-06-07T13:08:08.085Z,102006.03
2023-06-07T13:13:10.013Z,101993.72
2023-06-07T13:18:11.752Z,102005.97
2023-06-07T13:23:13.787Z,101995.22
2023-06-07T13:28:16.506Z,101994.69
2023-06-07T13:33:19.859Z,101987.00
2023-06-07T13:38:21.750Z,101974.38
2023-06-07T13:43:31.009Z,101976.56
2023-06-07T13:48:45.302Z,101977.31
2023-06-07T13:53:47.346Z,101964.28
2023-06-07T13:58:49.299Z,101965.28
2023-06-07T14:03:51.156Z,101956.59
2023-06-07T14:08:52.858Z,101957.59
2023-06-07T14:13:54.492Z,101954.75
2023-06-07T14:18:56.507Z,101951.88
2023-06-07T14:23:59.956Z,101949.75
2023-06-07T14:29:01.606Z,101942.16
2023-06-07T14:34:03.291Z,101949.66
2023-06-07T14:39:04.949Z,101944.00
2023-06-07T14:44:07.981Z,101942.16
2023-06-07T14:49:09.695Z,101942.66
2023-06-07T14:54:11.398Z,101945.88
2023-06-07T14:59:14.275Z,101939.16
2023-06-07T15:04:16.246Z,101938.81
2023-06-07T15:09:18.347Z,101939.56
2023-06-07T15:14:20.110Z,101935.78
2023-06-07T15:19:21.814Z,101936.59
2023-06-07T15:24:23.605Z,101938.75
2023-06-07T15:29:25.795Z,101938.84
2023-06-07T15:34:30.258Z,101930.38
2023-06-07T15:39:33.407Z,101934.91
2023-06-07T15:44:35.508Z,101933.00
2023-06-07T15:49:37.626Z,101943.50
2023-06-07T15:54:39.772Z,101933.38
2023-06-07T15:59:41.498Z,101931.19
2023-06-07T16:04:43.186Z,101930.09
2023-06-07T16:09:44.887Z,101918.63
2023-06-07T16:14:46.561Z,101917.13
2023-06-07T16:19:48.222Z,101912.31
2023-06-07T16:24:49.878Z,101911.47
2023-06-07T16:29:51.780Z,101906.13
2023-06-07T16:34:53.530Z,101910.78
2023-06-07T16:39:56.338Z,101900.97
2023-06-07T16:44:59.586Z,101901.88
2023-06-07T16:50:01.226Z,101898.94
2023-06-07T16:55:03.312Z,101909.94
2023-06-07T17:00:06.518Z,101915.31
2023-06-07T17:05:08.912Z,101909.97
2023-06-07T17:10:10.873Z,101901.25
2023-06-07T17:15:12.647Z,101909.94
2023-06-07T17:20:14.535Z,101919.44
2023-06-07T17:25:16.219Z,101910.41
2023-06-07T17:30:18.058Z,101918.63
2023-06-07T17:35:19.903Z,101910.34
2023-06-07T17:40:25.068Z,101901.38
2023-06-07T17:45:29.650Z,101917.78
2023-06-07T17:50:46.582Z,101913.81
2023-06-07T17:56:01.905Z,101918.78
2023-06-07T18:01:05.765Z,101925.59
2023-06-07T18:06:09.835Z,101922.34
2023-06-07T18:11:12.229Z,101916.78
2023-06-07T18:16:14.466Z,101914.16
2023-06-07T18:21:16.548Z,101915.69
2023-06-07T18:26:18.251Z,101912.22
2023-06-07T18:31:20.092Z,101911.84
2023-06-07T18:36:21.796Z,101915.63
2023-06-07T18:41:23.502Z,101917.50
2023-06-07T18:46:25.301Z,101914.44
2023-06-07T18:51:27.600Z,101919.78
2023-06-07T18:56:29.891Z,101919.28
2023-06-07T19:01:46.496Z,101921.44
2023-06-07T19:06:56.573Z,101924.44
2023-06-07T19:12:01.564Z,101912.63
2023-06-07T19:17:03.835Z,101927.16
2023-06-07T19:22:08.994Z,101917.19
2023-06-07T19:27:11.999Z,101927.16
2023-06-07T19:32:15.103Z,101925.44
2023-06-07T19:37:18.109Z,101932.94
2023-06-07T19:42:21.204Z,101928.44
2023-06-07T19:47:23.716Z,101931.63
2023-06-07T19:52:29.974Z,101929.69
2023-06-07T19:57:31.811Z,101941.56
2023-06-07T20:02:34.616Z,101932.22
2023-06-07T20:07:36.527Z,101937.06
2023-06-07T20:12:38.904Z,101947.03
2023-06-07T20:17:40.780Z,101955.19
2023-06-07T20:22:42.503Z,101954.13
2023-06-07T20:27:44.115Z,101950.53
2023-06-07T20:32:47.357Z,101960.25
2023-06-07T20:37:50.295Z,101958.34
2023-06-07T20:42:53.279Z,101966.91
2023-06-07T20:47:55.044Z,101966.13
2023-06-07T20:52:56.730Z,101958.41
2023-06-07T20:57:59.473Z,101968.06
2023-06-07T21:03:01.259Z,101969.03
2023-06-07T21:08:02.926Z,101960.84
2023-06-07T21:13:04.713Z,101960.25
2023-06-07T21:18:06.752Z,101966.56
2023-06-07T21:23:12.175Z,101959.69
2023-06-07T21:28:16.427Z,101955.81
2023-06-07T21:33:21.562Z,101979.56
2023-06-07T21:38:23.205Z,101973.81
2023-06-07T21:43:24.897Z,101964.22
2023-06-07T21:48:26.584Z,101961.59
2023-06-07T21:53:29.179Z,101958.25
2023-06-07T21:58:30.881Z,101949.69
2023-06-07T22:03:33.177Z,101955.41
2023-06-07T22:08:34.806Z,101949.19
2023-06-07T22:13:39.886Z,101951.84
2023-06-07T22:18:41.770Z,101953.81
2023-06-07T22:23:43.431Z,101954.91
2023-06-07T22:28:45.725Z,101958.00
2023-06-07T22:33:47.363Z,101954.50
2023-06-07T22:38:49.032Z,101966.31
2023-06-07T22:43:50.699Z,101952.81
2023-06-07T22:48:53.906Z,101955.22
2023-06-07T22:53:56.251Z,101949.56
2023-06-07T22:58:58.314Z,101947.97
2023-06-07T23:04:01.989Z,101951.78
2023-06-07T23:09:05.116Z,101959.38
2023-06-07T23:14:08.111Z,101946.84
2023-06-07T23:19:09.788Z,101942.19
2023-06-07T23:24:13.004Z,101942.66
2023-06-07T23:29:15.180Z,101948.09
2023-06-07T23:34:16.863Z,101942.78
2023-06-07T23:39:18.582Z,101940.56
2023-06-07T23:44:25.142Z,101936.97
2023-06-07T23:49:32.389Z,101942.19
2023-06-07T23:54:34.226Z,101936.63
2023-06-07T23:59:38.169Z,101936.94
